sensor_id;sensor_type;location;lat;lon;timestamp;P1;durP1;ratioP1;P2;durP2;ratioP2
16516;SDS011;8371;52.272;9.746;2023-02-15T00:00:54;3.20;;;3.10;;
16516;SDS011;8371;52.272;9.746;2023-02-15T00:03:33;3.30;;;3.20;;
16516;SDS011;8371;52.272;9.746;2023-02-15T00:05:59;3.20;;;3.10;;
16516;SDS011;8371;52.272;9.746;2023-02-15T00:08:24;3.07;;;2.97;;
16516;SDS011;8371;52.272;9.746;2023-02-15T00:10:50;3.20;;;3.10;;
16516;SDS011;8371;52.272;9.746;2023-02-15T00:13:15;3.17;;;3.07;;
16516;SDS011;8371;52.272;9.746;2023-02-15T00:15:41;2.80;;;2.70;;
16516;SDS011;8371;52.272;9.746;2023-02-15T00:18:07;3.37;;;3.27;;
16516;SDS011;8371;52.272;9.746;2023-02-15T00:20:32;3.20;;;3.10;;
16516;SDS011;8371;52.272;9.746;2023-02-15T00:22:58;3.00;;;2.90;;
16516;SDS011;8371;52.272;9.746;2023-02-15T00:25:24;3.50;;;3.40;;
16516;SDS011;8371;52.272;9.746;2023-02-15T00:27:49;3.03;;;2.93;;
16516;SDS011;8371;52.272;9.746;2023-02-15T00:30:15;3.30;;;3.20;;
16516;SDS011;8371;52.272;9.746;2023-02-15T00:32:41;3.33;;;3.23;;
16516;SDS011;8371;52.272;9.746;2023-02-15T00:35:07;2.57;;;2.47;;
16516;SDS011;8371;52.272;9.746;2023-02-15T00:37:34;3.13;;;3.03;;
16516;SDS011;8371;52.272;9.746;2023-02-15T00:40:00;3.17;;;3.07;;
16516;SDS011;8371;52.272;9.746;2023-02-15T00:42:26;3.20;;;3.10;;
16516;SDS011;8371;52.272;9.746;2023-02-15T00:44:51;3.83;;;3.63;;
16516;SDS011;8371;52.272;9.746;2023-02-15T00:47:17;3.70;;;3.60;;
16516;SDS011;8371;52.272;9.746;2023-02-15T00:49:43;3.13;;;3.03;;
16516;SDS011;8371;52.272;9.746;2023-02-15T00:52:09;4.13;;;3.93;;
16516;SDS011;8371;52.272;9.746;2023-02-15T00:54:34;3.40;;;3.20;;
16516;SDS011;8371;52.272;9.746;2023-02-15T00:57:00;3.83;;;3.53;;
16516;SDS011;8371;52.272;9.746;2023-02-15T00:59:26;3.43;;;3.33;;
16516;SDS011;8371;52.272;9.746;2023-02-15T01:01:52;3.73;;;3.53;;
16516;SDS011;8371;52.272;9.746;2023-02-15T01:04:17;4.00;;;3.80;;
16516;SDS011;8371;52.272;9.746;2023-02-15T01:06:43;3.80;;;3.60;;
16516;SDS011;8371;52.272;9.746;2023-02-15T01:09:09;3.37;;;3.27;;
16516;SDS011;8371;52.272;9.746;2023-02-15T01:11:34;3.67;;;3.50;;
16516;SDS011;8371;52.272;9.746;2023-02-15T01:14:00;3.87;;;3.67;;
16516;SDS011;8371;52.272;9.746;2023-02-15T01:16:26;3.80;;;3.60;;
16516;SDS011;8371;52.272;9.746;2023-02-15T01:18:53;3.50;;;3.40;;
16516;SDS011;8371;52.272;9.746;2023-02-15T01:21:20;3.47;;;3.37;;
16516;SDS011;8371;52.272;9.746;2023-02-15T01:23:47;3.67;;;3.47;;
16516;SDS011;8371;52.272;9.746;2023-02-15T01:26:13;3.67;;;3.57;;
16516;SDS011;8371;52.272;9.746;2023-02-15T01:28:40;4.00;;;3.80;;
16516;SDS011;8371;52.272;9.746;2023-02-15T01:31:06;3.77;;;3.57;;
16516;SDS011;8371;52.272;9.746;2023-02-15T01:33:33;3.53;;;3.23;;
16516;SDS011;8371;52.272;9.746;2023-02-15T01:35:59;3.60;;;3.50;;
16516;SDS011;8371;52.272;9.746;2023-02-15T01:38:25;3.73;;;3.63;;
16516;SDS011;8371;52.272;9.746;2023-02-15T01:40:51;3.70;;;3.60;;
16516;SDS011;8371;52.272;9.746;2023-02-15T01:43:18;3.90;;;3.73;;
16516;SDS011;8371;52.272;9.746;2023-02-15T01:45:43;4.50;;;4.20;;
16516;SDS011;8371;52.272;9.746;2023-02-15T01:48:23;4.30;;;4.10;;
16516;SDS011;8371;52.272;9.746;2023-02-15T01:50:50;3.33;;;3.23;;
16516;SDS011;8371;52.272;9.746;2023-02-15T01:56:00;3.40;;;3.30;;
16516;SDS011;8371;52.272;9.746;2023-02-15T01:58:28;3.30;;;3.20;;
16516;SDS011;8371;52.272;9.746;2023-02-15T02:00:56;3.53;;;3.33;;
16516;SDS011;8371;52.272;9.746;2023-02-15T02:03:32;3.63;;;3.50;;
16516;SDS011;8371;52.272;9.746;2023-02-15T02:06:10;3.73;;;3.63;;
16516;SDS011;8371;52.272;9.746;2023-02-15T02:08:37;3.77;;;3.63;;
16516;SDS011;8371;52.272;9.746;2023-02-15T02:11:04;3.83;;;3.73;;
16516;SDS011;8371;52.272;9.746;2023-02-15T02:13:32;3.80;;;3.63;;
16516;SDS011;8371;52.272;9.746;2023-02-15T02:16:00;4.40;;;4.20;;
16516;SDS011;8371;52.272;9.746;2023-02-15T02:21:12;4.33;;;4.13;;
16516;SDS011;8371;52.272;9.746;2023-02-15T02:23:39;3.90;;;3.73;;
16516;SDS011;8371;52.272;9.746;2023-02-15T02:29:30;4.53;;;4.33;;
16516;SDS011;8371;52.272;9.746;2023-02-15T02:35:00;4.47;;;4.17;;
16516;SDS011;8371;52.272;9.746;2023-02-15T02:37:35;4.03;;;3.83;;
16516;SDS011;8371;52.272;9.746;2023-02-15T02:40:13;4.10;;;3.80;;
16516;SDS011;8371;52.272;9.746;2023-02-15T02:42:47;4.50;;;4.30;;
16516;SDS011;8371;52.272;9.746;2023-02-15T02:45:15;4.50;;;4.20;;
16516;SDS011;8371;52.272;9.746;2023-02-15T02:47:49;4.40;;;4.10;;
16516;SDS011;8371;52.272;9.746;2023-02-15T02:50:21;4.73;;;4.43;;
16516;SDS011;8371;52.272;9.746;2023-02-15T02:52:51;5.10;;;4.90;;
16516;SDS011;8371;52.272;9.746;2023-02-15T02:58:03;5.10;;;4.90;;
16516;SDS011;8371;52.272;9.746;2023-02-15T03:00:30;4.90;;;4.67;;
16516;SDS011;8371;52.272;9.746;2023-02-15T03:03:00;4.80;;;4.60;;
16516;SDS011;8371;52.272;9.746;2023-02-15T03:05:31;4.57;;;4.37;;
16516;SDS011;8371;52.272;9.746;2023-02-15T03:08:00;5.10;;;4.80;;
16516;SDS011;8371;52.272;9.746;2023-02-15T03:10:31;5.13;;;4.93;;
16516;SDS011;8371;52.272;9.746;2023-02-15T03:12:59;5.03;;;4.83;;
16516;SDS011;8371;52.272;9.746;2023-02-15T03:15:27;5.10;;;4.80;;
16516;SDS011;8371;52.272;9.746;2023-02-15T03:17:59;4.57;;;4.30;;
16516;SDS011;8371;52.272;9.746;2023-02-15T03:20:29;4.97;;;4.67;;
16516;SDS011;8371;52.272;9.746;2023-02-15T03:23:02;5.30;;;5.00;;
16516;SDS011;8371;52.272;9.746;2023-02-15T03:25:37;5.23;;;4.93;;
16516;SDS011;8371;52.272;9.746;2023-02-15T03:28:06;5.10;;;4.90;;
16516;SDS011;8371;52.272;9.746;2023-02-15T03:30:35;4.53;;;4.33;;
16516;SDS011;8371;52.272;9.746;2023-02-15T03:33:03;4.93;;;4.73;;
16516;SDS011;8371;52.272;9.746;2023-02-15T03:35:33;5.03;;;4.83;;
16516;SDS011;8371;52.272;9.746;2023-02-15T03:38:03;5.40;;;5.13;;
16516;SDS011;8371;52.272;9.746;2023-02-15T03:40:39;4.43;;;4.23;;
16516;SDS011;8371;52.272;9.746;2023-02-15T03:46:16;4.50;;;4.30;;
16516;SDS011;8371;52.272;9.746;2023-02-15T03:48:46;5.60;;;5.30;;
16516;SDS011;8371;52.272;9.746;2023-02-15T03:51:16;4.87;;;4.67;;
16516;SDS011;8371;52.272;9.746;2023-02-15T03:56:37;4.90;;;4.70;;
16516;SDS011;8371;52.272;9.746;2023-02-15T03:59:05;5.00;;;4.80;;
16516;SDS011;8371;52.272;9.746;2023-02-15T04:04:41;5.17;;;4.87;;
16516;SDS011;8371;52.272;9.746;2023-02-15T04:07:09;6.00;;;5.70;;
16516;SDS011;8371;52.272;9.746;2023-02-15T04:09:35;5.73;;;5.43;;
16516;SDS011;8371;52.272;9.746;2023-02-15T04:12:19;5.67;;;5.37;;
16516;SDS011;8371;52.272;9.746;2023-02-15T04:14:45;5.30;;;5.10;;
16516;SDS011;8371;52.272;9.746;2023-02-15T04:17:29;4.73;;;4.53;;
16516;SDS011;8371;52.272;9.746;2023-02-15T04:19:55;4.77;;;4.57;;
16516;SDS011;8371;52.272;9.746;2023-02-15T04:22:39;6.13;;;5.73;;
16516;SDS011;8371;52.272;9.746;2023-02-15T04:25:23;5.10;;;4.90;;
16516;SDS011;8371;52.272;9.746;2023-02-15T04:27:50;5.03;;;4.83;;
16516;SDS011;8371;52.272;9.746;2023-02-15T04:30:18;5.33;;;5.13;;
16516;SDS011;8371;52.272;9.746;2023-02-15T04:32:46;5.73;;;5.43;;
16516;SDS011;8371;52.272;9.746;2023-02-15T04:35:12;6.07;;;5.73;;
16516;SDS011;8371;52.272;9.746;2023-02-15T04:37:39;5.30;;;5.00;;
16516;SDS011;8371;52.272;9.746;2023-02-15T04:40:06;5.53;;;5.23;;
16516;SDS011;8371;52.272;9.746;2023-02-15T04:42:33;5.37;;;5.07;;
16516;SDS011;8371;52.272;9.746;2023-02-15T04:44:59;5.50;;;5.20;;
16516;SDS011;8371;52.272;9.746;2023-02-15T04:47:25;5.17;;;4.97;;
16516;SDS011;8371;52.272;9.746;2023-02-15T04:49:51;5.53;;;5.23;;
16516;SDS011;8371;52.272;9.746;2023-02-15T04:52:16;5.90;;;5.47;;
16516;SDS011;8371;52.272;9.746;2023-02-15T04:54:45;5.57;;;5.30;;
16516;SDS011;8371;52.272;9.746;2023-02-15T04:57:10;5.50;;;5.30;;
16516;SDS011;8371;52.272;9.746;2023-02-15T04:59:36;6.30;;;5.90;;
16516;SDS011;8371;52.272;9.746;2023-02-15T05:02:02;5.80;;;5.50;;
16516;SDS011;8371;52.272;9.746;2023-02-15T05:04:28;5.80;;;5.50;;
16516;SDS011;8371;52.272;9.746;2023-02-15T05:06:54;6.03;;;5.73;;
16516;SDS011;8371;52.272;9.746;2023-02-15T05:09:19;6.23;;;5.87;;
16516;SDS011;8371;52.272;9.746;2023-02-15T05:11:45;5.40;;;5.10;;
16516;SDS011;8371;52.272;9.746;2023-02-15T05:14:11;6.20;;;5.90;;
16516;SDS011;8371;52.272;9.746;2023-02-15T05:16:36;5.53;;;5.33;;
16516;SDS011;8371;52.272;9.746;2023-02-15T05:19:02;5.70;;;5.40;;
16516;SDS011;8371;52.272;9.746;2023-02-15T05:21:28;6.03;;;5.73;;
16516;SDS011;8371;52.272;9.746;2023-02-15T05:23:53;6.77;;;6.43;;
16516;SDS011;8371;52.272;9.746;2023-02-15T05:26:22;6.47;;;5.97;;
16516;SDS011;8371;52.272;9.746;2023-02-15T05:28:59;5.70;;;5.40;;
16516;SDS011;8371;52.272;9.746;2023-02-15T05:31:24;6.30;;;6.00;;
16516;SDS011;8371;52.272;9.746;2023-02-15T05:33:50;7.07;;;6.67;;
16516;SDS011;8371;52.272;9.746;2023-02-15T05:36:16;6.53;;;6.23;;
16516;SDS011;8371;52.272;9.746;2023-02-15T05:38:42;7.00;;;6.60;;
16516;SDS011;8371;52.272;9.746;2023-02-15T05:41:08;6.83;;;6.50;;
16516;SDS011;8371;52.272;9.746;2023-02-15T05:43:35;6.80;;;6.43;;
16516;SDS011;8371;52.272;9.746;2023-02-15T05:46:01;6.30;;;6.00;;
16516;SDS011;8371;52.272;9.746;2023-02-15T05:48:28;6.60;;;6.30;;
16516;SDS011;8371;52.272;9.746;2023-02-15T05:51:02;5.60;;;5.40;;
16516;SDS011;8371;52.272;9.746;2023-02-15T05:53:31;7.23;;;6.73;;
16516;SDS011;8371;52.272;9.746;2023-02-15T05:55:57;6.80;;;6.30;;
16516;SDS011;8371;52.272;9.746;2023-02-15T05:58:28;6.77;;;6.37;;
16516;SDS011;8371;52.272;9.746;2023-02-15T06:00:56;6.50;;;6.20;;
16516;SDS011;8371;52.272;9.746;2023-02-15T06:03:22;6.27;;;5.97;;
16516;SDS011;8371;52.272;9.746;2023-02-15T06:05:48;7.07;;;6.67;;
16516;SDS011;8371;52.272;9.746;2023-02-15T06:08:14;6.17;;;5.87;;
16516;SDS011;8371;52.272;9.746;2023-02-15T06:10:40;6.37;;;6.07;;
16516;SDS011;8371;52.272;9.746;2023-02-15T06:13:06;6.80;;;6.40;;
16516;SDS011;8371;52.272;9.746;2023-02-15T06:15:32;6.23;;;5.93;;
16516;SDS011;8371;52.272;9.746;2023-02-15T06:17:58;6.83;;;6.43;;
16516;SDS011;8371;52.272;9.746;2023-02-15T06:20:24;6.73;;;6.33;;
16516;SDS011;8371;52.272;9.746;2023-02-15T06:22:49;6.50;;;6.10;;
16516;SDS011;8371;52.272;9.746;2023-02-15T06:25:15;6.93;;;6.53;;
16516;SDS011;8371;52.272;9.746;2023-02-15T06:27:41;6.57;;;6.27;;
16516;SDS011;8371;52.272;9.746;2023-02-15T06:30:08;6.30;;;6.00;;
16516;SDS011;8371;52.272;9.746;2023-02-15T06:32:35;6.63;;;6.17;;
16516;SDS011;8371;52.272;9.746;2023-02-15T06:35:01;6.10;;;5.80;;
16516;SDS011;8371;52.272;9.746;2023-02-15T06:37:26;7.20;;;6.80;;
16516;SDS011;8371;52.272;9.746;2023-02-15T06:39:52;7.10;;;6.70;;
16516;SDS011;8371;52.272;9.746;2023-02-15T06:42:18;6.47;;;6.13;;
16516;SDS011;8371;52.272;9.746;2023-02-15T06:44:44;6.80;;;6.50;;
16516;SDS011;8371;52.272;9.746;2023-02-15T06:47:10;6.93;;;6.60;;
16516;SDS011;8371;52.272;9.746;2023-02-15T06:49:37;6.93;;;6.53;;
16516;SDS011;8371;52.272;9.746;2023-02-15T06:52:03;6.90;;;6.60;;
16516;SDS011;8371;52.272;9.746;2023-02-15T06:54:29;7.07;;;6.67;;
16516;SDS011;8371;52.272;9.746;2023-02-15T06:56:56;6.50;;;6.10;;
16516;SDS011;8371;52.272;9.746;2023-02-15T06:59:22;6.43;;;6.03;;
16516;SDS011;8371;52.272;9.746;2023-02-15T07:01:47;7.23;;;6.83;;
16516;SDS011;8371;52.272;9.746;2023-02-15T07:04:14;7.23;;;6.83;;
16516;SDS011;8371;52.272;9.746;2023-02-15T07:06:40;6.77;;;6.37;;
16516;SDS011;8371;52.272;9.746;2023-02-15T07:09:06;6.40;;;6.10;;
16516;SDS011;8371;52.272;9.746;2023-02-15T07:11:31;7.63;;;7.17;;
16516;SDS011;8371;52.272;9.746;2023-02-15T07:14:15;6.83;;;6.53;;
16516;SDS011;8371;52.272;9.746;2023-02-15T07:16:41;6.23;;;5.83;;
16516;SDS011;8371;52.272;9.746;2023-02-15T07:19:07;6.87;;;6.47;;
16516;SDS011;8371;52.272;9.746;2023-02-15T07:21:33;7.00;;;6.60;;
16516;SDS011;8371;52.272;9.746;2023-02-15T07:23:59;6.50;;;6.20;;
16516;SDS011;8371;52.272;9.746;2023-02-15T07:26:25;6.83;;;6.47;;
16516;SDS011;8371;52.272;9.746;2023-02-15T07:28:51;6.93;;;6.43;;
16516;SDS011;8371;52.272;9.746;2023-02-15T07:31:17;6.83;;;6.53;;
16516;SDS011;8371;52.272;9.746;2023-02-15T07:33:43;6.90;;;6.50;;
16516;SDS011;8371;52.272;9.746;2023-02-15T07:36:09;6.07;;;5.77;;
16516;SDS011;8371;52.272;9.746;2023-02-15T07:38:37;6.77;;;6.37;;
16516;SDS011;8371;52.272;9.746;2023-02-15T07:41:05;6.50;;;6.20;;
16516;SDS011;8371;52.272;9.746;2023-02-15T07:43:33;7.20;;;6.60;;
16516;SDS011;8371;52.272;9.746;2023-02-15T07:46:02;6.50;;;6.20;;
16516;SDS011;8371;52.272;9.746;2023-02-15T07:48:29;6.80;;;6.43;;
16516;SDS011;8371;52.272;9.746;2023-02-15T07:50:58;6.13;;;5.83;;
16516;SDS011;8371;52.272;9.746;2023-02-15T07:53:26;6.67;;;6.30;;
16516;SDS011;8371;52.272;9.746;2023-02-15T07:55:52;6.30;;;5.97;;
16516;SDS011;8371;52.272;9.746;2023-02-15T07:58:18;7.13;;;6.63;;
16516;SDS011;8371;52.272;9.746;2023-02-15T08:00:44;6.57;;;6.23;;
16516;SDS011;8371;52.272;9.746;2023-02-15T08:03:26;6.33;;;6.03;;
16516;SDS011;8371;52.272;9.746;2023-02-15T08:05:57;7.13;;;6.67;;
16516;SDS011;8371;52.272;9.746;2023-02-15T08:08:25;6.40;;;6.03;;
16516;SDS011;8371;52.272;9.746;2023-02-15T08:13:45;6.33;;;6.03;;
16516;SDS011;8371;52.272;9.746;2023-02-15T08:16:22;6.97;;;6.57;;
16516;SDS011;8371;52.272;9.746;2023-02-15T08:18:51;6.70;;;6.30;;
16516;SDS011;8371;52.272;9.746;2023-02-15T08:21:18;5.93;;;5.63;;
16516;SDS011;8371;52.272;9.746;2023-02-15T08:23:44;6.73;;;6.33;;
16516;SDS011;8371;52.272;9.746;2023-02-15T08:26:10;6.93;;;6.53;;
16516;SDS011;8371;52.272;9.746;2023-02-15T08:28:36;6.23;;;5.93;;
16516;SDS011;8371;52.272;9.746;2023-02-15T08:31:10;6.13;;;5.83;;
16516;SDS011;8371;52.272;9.746;2023-02-15T08:33:33;6.53;;;6.23;;
16516;SDS011;8371;52.272;9.746;2023-02-15T08:36:04;6.70;;;6.30;;
16516;SDS011;8371;52.272;9.746;2023-02-15T08:38:34;6.63;;;6.27;;
16516;SDS011;8371;52.272;9.746;2023-02-15T08:41:14;5.70;;;5.40;;
16516;SDS011;8371;52.272;9.746;2023-02-15T08:43:42;6.47;;;6.07;;
16516;SDS011;8371;52.272;9.746;2023-02-15T08:46:10;7.00;;;6.60;;
16516;SDS011;8371;52.272;9.746;2023-02-15T08:48:36;6.03;;;5.73;;
16516;SDS011;8371;52.272;9.746;2023-02-15T08:51:06;6.30;;;6.00;;
16516;SDS011;8371;52.272;9.746;2023-02-15T08:53:36;5.70;;;5.40;;
16516;SDS011;8371;52.272;9.746;2023-02-15T08:56:03;5.53;;;5.23;;
16516;SDS011;8371;52.272;9.746;2023-02-15T08:58:29;5.33;;;5.10;;
16516;SDS011;8371;52.272;9.746;2023-02-15T09:00:56;6.03;;;5.73;;
16516;SDS011;8371;52.272;9.746;2023-02-15T09:03:22;6.40;;;6.00;;
16516;SDS011;8371;52.272;9.746;2023-02-15T09:05:48;6.63;;;6.23;;
16516;SDS011;8371;52.272;9.746;2023-02-15T09:08:14;6.30;;;5.90;;
16516;SDS011;8371;52.272;9.746;2023-02-15T09:10:40;6.03;;;5.73;;
16516;SDS011;8371;52.272;9.746;2023-02-15T09:13:05;5.87;;;5.57;;
16516;SDS011;8371;52.272;9.746;2023-02-15T09:15:31;6.63;;;6.33;;
16516;SDS011;8371;52.272;9.746;2023-02-15T09:17:57;6.17;;;5.87;;
16516;SDS011;8371;52.272;9.746;2023-02-15T09:20:24;6.23;;;5.93;;
16516;SDS011;8371;52.272;9.746;2023-02-15T09:22:51;6.40;;;6.07;;
16516;SDS011;8371;52.272;9.746;2023-02-15T09:25:17;7.13;;;6.73;;
16516;SDS011;8371;52.272;9.746;2023-02-15T09:27:43;7.27;;;6.87;;
16516;SDS011;8371;52.272;9.746;2023-02-15T09:30:09;6.87;;;6.47;;
16516;SDS011;8371;52.272;9.746;2023-02-15T09:32:35;6.37;;;6.07;;
16516;SDS011;8371;52.272;9.746;2023-02-15T09:35:01;7.07;;;6.57;;
16516;SDS011;8371;52.272;9.746;2023-02-15T09:37:26;6.20;;;5.87;;
16516;SDS011;8371;52.272;9.746;2023-02-15T09:39:52;7.43;;;7.03;;
16516;SDS011;8371;52.272;9.746;2023-02-15T09:45:07;6.23;;;5.93;;
16516;SDS011;8371;52.272;9.746;2023-02-15T09:47:43;6.53;;;6.23;;
16516;SDS011;8371;52.272;9.746;2023-02-15T09:50:43;6.50;;;6.20;;
16516;SDS011;8371;52.272;9.746;2023-02-15T09:56:31;6.13;;;5.83;;
16516;SDS011;8371;52.272;9.746;2023-02-15T09:59:17;7.27;;;6.87;;
16516;SDS011;8371;52.272;9.746;2023-02-15T10:01:50;7.17;;;6.87;;
16516;SDS011;8371;52.272;9.746;2023-02-15T10:04:35;6.47;;;6.17;;
16516;SDS011;8371;52.272;9.746;2023-02-15T10:13:01;6.20;;;5.87;;
16516;SDS011;8371;52.272;9.746;2023-02-15T10:20:54;6.70;;;6.30;;
16516;SDS011;8371;52.272;9.746;2023-02-15T10:26:19;6.47;;;6.17;;
16516;SDS011;8371;52.272;9.746;2023-02-15T10:29:11;6.97;;;6.47;;
16516;SDS011;8371;52.272;9.746;2023-02-15T10:39:12;6.00;;;5.70;;
16516;SDS011;8371;52.272;9.746;2023-02-15T10:41:53;6.13;;;5.83;;
16516;SDS011;8371;52.272;9.746;2023-02-15T10:44:43;6.80;;;6.20;;
16516;SDS011;8371;52.272;9.746;2023-02-15T10:47:13;6.30;;;6.00;;
16516;SDS011;8371;52.272;9.746;2023-02-15T10:49:53;6.03;;;5.73;;
16516;SDS011;8371;52.272;9.746;2023-02-15T10:55:36;5.60;;;5.40;;
16516;SDS011;8371;52.272;9.746;2023-02-15T10:58:16;5.70;;;5.40;;
16516;SDS011;8371;52.272;9.746;2023-02-15T11:01:00;5.80;;;5.60;;
16516;SDS011;8371;52.272;9.746;2023-02-15T11:03:39;5.87;;;5.57;;
16516;SDS011;8371;52.272;9.746;2023-02-15T11:06:11;5.63;;;5.33;;
16516;SDS011;8371;52.272;9.746;2023-02-15T11:08:44;6.37;;;6.07;;
16516;SDS011;8371;52.272;9.746;2023-02-15T11:11:20;5.80;;;5.50;;
16516;SDS011;8371;52.272;9.746;2023-02-15T11:13:50;6.23;;;5.93;;
16516;SDS011;8371;52.272;9.746;2023-02-15T11:16:20;6.20;;;5.90;;
16516;SDS011;8371;52.272;9.746;2023-02-15T11:18:50;6.63;;;6.33;;
16516;SDS011;8371;52.272;9.746;2023-02-15T11:21:20;6.43;;;6.13;;
16516;SDS011;8371;52.272;9.746;2023-02-15T11:23:50;6.53;;;6.13;;
16516;SDS011;8371;52.272;9.746;2023-02-15T11:26:20;5.87;;;5.57;;
16516;SDS011;8371;52.272;9.746;2023-02-15T11:28:54;5.97;;;5.70;;
16516;SDS011;8371;52.272;9.746;2023-02-15T11:31:26;6.43;;;6.13;;
16516;SDS011;8371;52.272;9.746;2023-02-15T11:33:55;5.87;;;5.57;;
16516;SDS011;8371;52.272;9.746;2023-02-15T11:36:33;7.03;;;6.73;;
16516;SDS011;8371;52.272;9.746;2023-02-15T11:39:03;6.47;;;6.17;;
16516;SDS011;8371;52.272;9.746;2023-02-15T11:41:33;6.07;;;5.77;;
16516;SDS011;8371;52.272;9.746;2023-02-15T11:44:18;5.77;;;5.53;;
16516;SDS011;8371;52.272;9.746;2023-02-15T11:46:46;6.17;;;5.87;;
16516;SDS011;8371;52.272;9.746;2023-02-15T11:49:31;6.53;;;6.23;;
16516;SDS011;8371;52.272;9.746;2023-02-15T11:51:58;7.07;;;6.70;;
16516;SDS011;8371;52.272;9.746;2023-02-15T11:54:28;6.60;;;6.30;;
16516;SDS011;8371;52.272;9.746;2023-02-15T11:56:59;6.10;;;5.90;;
16516;SDS011;8371;52.272;9.746;2023-02-15T11:59:28;6.87;;;6.57;;
16516;SDS011;8371;52.272;9.746;2023-02-15T12:01:58;6.63;;;6.23;;
16516;SDS011;8371;52.272;9.746;2023-02-15T12:04:32;6.30;;;6.00;;
16516;SDS011;8371;52.272;9.746;2023-02-15T12:07:02;6.10;;;5.87;;
16516;SDS011;8371;52.272;9.746;2023-02-15T12:09:48;6.43;;;6.13;;
16516;SDS011;8371;52.272;9.746;2023-02-15T12:12:33;5.43;;;5.23;;
16516;SDS011;8371;52.272;9.746;2023-02-15T12:15:01;6.17;;;5.87;;
16516;SDS011;8371;52.272;9.746;2023-02-15T12:17:30;6.53;;;6.23;;
16516;SDS011;8371;52.272;9.746;2023-02-15T12:22:51;5.90;;;5.60;;
16516;SDS011;8371;52.272;9.746;2023-02-15T12:25:41;6.47;;;6.07;;
16516;SDS011;8371;52.272;9.746;2023-02-15T12:27:54;6.00;;;5.70;;
16516;SDS011;8371;52.272;9.746;2023-02-15T12:30:34;6.57;;;6.27;;
16516;SDS011;8371;52.272;9.746;2023-02-15T12:35:35;5.97;;;5.67;;
16516;SDS011;8371;52.272;9.746;2023-02-15T12:38:04;6.33;;;6.03;;
16516;SDS011;8371;52.272;9.746;2023-02-15T12:40:38;7.03;;;6.73;;
16516;SDS011;8371;52.272;9.746;2023-02-15T12:43:08;6.57;;;6.27;;
16516;SDS011;8371;52.272;9.746;2023-02-15T12:45:35;6.40;;;6.10;;
16516;SDS011;8371;52.272;9.746;2023-02-15T12:48:18;6.30;;;6.00;;
16516;SDS011;8371;52.272;9.746;2023-02-15T12:50:49;6.13;;;5.93;;
16516;SDS011;8371;52.272;9.746;2023-02-15T12:53:17;5.60;;;5.40;;
16516;SDS011;8371;52.272;9.746;2023-02-15T12:55:51;6.20;;;5.90;;
16516;SDS011;8371;52.272;9.746;2023-02-15T12:58:20;7.53;;;7.13;;
16516;SDS011;8371;52.272;9.746;2023-02-15T13:00:56;6.70;;;6.40;;
16516;SDS011;8371;52.272;9.746;2023-02-15T13:03:19;6.67;;;6.37;;
16516;SDS011;8371;52.272;9.746;2023-02-15T13:05:53;6.70;;;6.40;;
16516;SDS011;8371;52.272;9.746;2023-02-15T13:08:21;6.43;;;6.13;;
16516;SDS011;8371;52.272;9.746;2023-02-15T13:13:29;6.17;;;5.87;;
16516;SDS011;8371;52.272;9.746;2023-02-15T13:16:01;7.50;;;6.90;;
16516;SDS011;8371;52.272;9.746;2023-02-15T13:18:39;6.77;;;6.40;;
16516;SDS011;8371;52.272;9.746;2023-02-15T13:21:13;6.33;;;6.03;;
16516;SDS011;8371;52.272;9.746;2023-02-15T13:23:42;6.63;;;6.33;;
16516;SDS011;8371;52.272;9.746;2023-02-15T13:26:23;6.57;;;6.27;;
16516;SDS011;8371;52.272;9.746;2023-02-15T13:28:53;6.30;;;6.00;;
16516;SDS011;8371;52.272;9.746;2023-02-15T13:31:25;6.77;;;6.37;;
16516;SDS011;8371;52.272;9.746;2023-02-15T13:33:58;5.63;;;5.43;;
16516;SDS011;8371;52.272;9.746;2023-02-15T13:42:37;6.40;;;6.10;;
16516;SDS011;8371;52.272;9.746;2023-02-15T13:48:09;6.27;;;5.97;;
16516;SDS011;8371;52.272;9.746;2023-02-15T13:53:40;5.87;;;5.57;;
16516;SDS011;8371;52.272;9.746;2023-02-15T13:58:58;6.20;;;5.90;;
16516;SDS011;8371;52.272;9.746;2023-02-15T14:01:28;6.70;;;6.40;;
16516;SDS011;8371;52.272;9.746;2023-02-15T14:03:59;6.40;;;6.00;;
16516;SDS011;8371;52.272;9.746;2023-02-15T14:06:46;7.07;;;6.73;;
16516;SDS011;8371;52.272;9.746;2023-02-15T14:09:21;5.93;;;5.63;;
16516;SDS011;8371;52.272;9.746;2023-02-15T14:11:54;6.80;;;6.50;;
16516;SDS011;8371;52.272;9.746;2023-02-15T14:14:29;5.60;;;5.37;;
16516;SDS011;8371;52.272;9.746;2023-02-15T14:17:17;6.43;;;6.13;;
16516;SDS011;8371;52.272;9.746;2023-02-15T14:20:03;6.27;;;5.77;;
16516;SDS011;8371;52.272;9.746;2023-02-15T14:23:05;6.00;;;5.70;;
16516;SDS011;8371;52.272;9.746;2023-02-15T14:25:43;6.40;;;6.10;;
16516;SDS011;8371;52.272;9.746;2023-02-15T14:28:15;5.80;;;5.53;;
16516;SDS011;8371;52.272;9.746;2023-02-15T14:30:48;5.73;;;5.43;;
16516;SDS011;8371;52.272;9.746;2023-02-15T14:36:06;6.00;;;5.70;;
16516;SDS011;8371;52.272;9.746;2023-02-15T14:41:34;5.90;;;5.60;;
16516;SDS011;8371;52.272;9.746;2023-02-15T14:44:12;6.80;;;6.50;;
16516;SDS011;8371;52.272;9.746;2023-02-15T14:49:45;5.43;;;5.23;;
16516;SDS011;8371;52.272;9.746;2023-02-15T14:52:11;5.33;;;5.13;;
16516;SDS011;8371;52.272;9.746;2023-02-15T15:02:23;6.13;;;5.83;;
16516;SDS011;8371;52.272;9.746;2023-02-15T15:05:02;6.50;;;6.23;;
16516;SDS011;8371;52.272;9.746;2023-02-15T15:07:46;5.23;;;5.03;;
16516;SDS011;8371;52.272;9.746;2023-02-15T15:12:50;5.37;;;5.17;;
16516;SDS011;8371;52.272;9.746;2023-02-15T15:17:56;6.07;;;5.70;;
16516;SDS011;8371;52.272;9.746;2023-02-15T15:25:54;5.63;;;5.33;;
16516;SDS011;8371;52.272;9.746;2023-02-15T15:31:20;6.13;;;5.83;;
16516;SDS011;8371;52.272;9.746;2023-02-15T15:36:59;5.43;;;5.13;;
16516;SDS011;8371;52.272;9.746;2023-02-15T15:42:12;5.57;;;5.20;;
16516;SDS011;8371;52.272;9.746;2023-02-15T15:45:04;5.47;;;5.17;;
16516;SDS011;8371;52.272;9.746;2023-02-15T15:50:17;5.40;;;5.10;;
16516;SDS011;8371;52.272;9.746;2023-02-15T15:52:47;5.13;;;4.93;;
16516;SDS011;8371;52.272;9.746;2023-02-15T15:55:15;5.90;;;5.60;;
16516;SDS011;8371;52.272;9.746;2023-02-15T15:57:43;5.13;;;4.83;;
16516;SDS011;8371;52.272;9.746;2023-02-15T16:00:34;5.47;;;5.17;;
16516;SDS011;8371;52.272;9.746;2023-02-15T16:02:50;5.47;;;5.23;;
16516;SDS011;8371;52.272;9.746;2023-02-15T16:05:17;5.93;;;5.63;;
16516;SDS011;8371;52.272;9.746;2023-02-15T16:07:42;5.77;;;5.47;;
16516;SDS011;8371;52.272;9.746;2023-02-15T16:10:19;5.40;;;5.20;;
16516;SDS011;8371;52.272;9.746;2023-02-15T16:12:38;5.97;;;5.67;;
16516;SDS011;8371;52.272;9.746;2023-02-15T16:15:15;5.27;;;4.83;;
16516;SDS011;8371;52.272;9.746;2023-02-15T16:17:40;5.57;;;5.27;;
16516;SDS011;8371;52.272;9.746;2023-02-15T16:28:49;5.87;;;5.47;;
16516;SDS011;8371;52.272;9.746;2023-02-15T16:31:16;6.20;;;5.80;;
16516;SDS011;8371;52.272;9.746;2023-02-15T16:33:43;7.00;;;5.70;;
16516;SDS011;8371;52.272;9.746;2023-02-15T16:36:26;5.80;;;5.50;;
16516;SDS011;8371;52.272;9.746;2023-02-15T16:41:27;5.60;;;5.30;;
16516;SDS011;8371;52.272;9.746;2023-02-15T16:43:54;7.17;;;6.10;;
16516;SDS011;8371;52.272;9.746;2023-02-15T16:46:27;5.50;;;5.10;;
16516;SDS011;8371;52.272;9.746;2023-02-15T16:48:56;6.07;;;5.77;;
16516;SDS011;8371;52.272;9.746;2023-02-15T16:51:25;5.60;;;5.30;;
16516;SDS011;8371;52.272;9.746;2023-02-15T16:53:54;5.37;;;5.10;;
16516;SDS011;8371;52.272;9.746;2023-02-15T16:56:25;6.30;;;5.90;;
16516;SDS011;8371;52.272;9.746;2023-02-15T16:58:54;5.07;;;4.77;;
16516;SDS011;8371;52.272;9.746;2023-02-15T17:01:21;5.67;;;5.47;;
16516;SDS011;8371;52.272;9.746;2023-02-15T17:03:50;5.40;;;5.10;;
16516;SDS011;8371;52.272;9.746;2023-02-15T17:06:19;5.80;;;5.50;;
16516;SDS011;8371;52.272;9.746;2023-02-15T17:08:46;6.00;;;5.70;;
16516;SDS011;8371;52.272;9.746;2023-02-15T17:11:20;5.80;;;5.50;;
16516;SDS011;8371;52.272;9.746;2023-02-15T17:16:42;5.67;;;5.37;;
16516;SDS011;8371;52.272;9.746;2023-02-15T17:21:52;5.87;;;5.50;;
16516;SDS011;8371;52.272;9.746;2023-02-15T17:24:28;5.70;;;5.40;;
16516;SDS011;8371;52.272;9.746;2023-02-15T17:27:16;6.03;;;5.73;;
16516;SDS011;8371;52.272;9.746;2023-02-15T17:29:49;6.23;;;5.83;;
16516;SDS011;8371;52.272;9.746;2023-02-15T17:32:21;5.50;;;5.23;;